createdAt,value
2022-09-10T00:02:13.399Z,98.10
2022-09-10T00:04:40.297Z,98.10
2022-09-10T00:07:07.279Z,97.90
2022-09-10T00:09:34.302Z,98.10
2022-09-10T00:12:01.328Z,98.10
2022-09-10T00:14:28.256Z,98.20
2022-09-10T00:16:55.350Z,98.30
2022-09-10T00:19:22.294Z,98.40
2022-09-10T00:21:50.801Z,98.30
2022-09-10T00:24:17.770Z,98.40
2022-09-10T00:26:45.779Z,98.50
2022-09-10T00:29:16.981Z,98.70
2022-09-10T00:31:44.776Z,98.70
2022-09-10T00:34:14.065Z,98.80
2022-09-10T00:36:43.275Z,98.80
2022-09-10T00:39:15.927Z,98.80
2022-09-10T00:41:45.232Z,98.80
2022-09-10T00:44:37.464Z,99.00
2022-09-10T00:47:08.157Z,99.00
2022-09-10T00:49:48.460Z,99.20
2022-09-10T00:52:15.455Z,99.20
2022-09-10T00:54:43.783Z,99.20
2022-09-10T00:57:17.256Z,99.20
2022-09-10T00:59:50.161Z,99.30
2022-09-10T01:02:17.335Z,99.20
2022-09-10T01:04:44.656Z,99.10
2022-09-10T01:07:13.729Z,99.00
2022-09-10T01:09:41.196Z,99.10
2022-09-10T01:12:49.645Z,99.10
2022-09-10T01:15:52.831Z,99.10
2022-09-10T01:18:41.863Z,99.10
2022-09-10T01:21:12.136Z,99.10
2022-09-10T01:23:48.134Z,99.10
2022-09-10T01:26:46.825Z,99.30
2022-09-10T01:29:52.936Z,99.40
2022-09-10T01:32:48.715Z,99.70
2022-09-10T01:35:32.292Z,99.50
2022-09-10T01:38:06.787Z,99.50
2022-09-10T01:40:35.170Z,99.50
2022-09-10T01:43:08.984Z,99.70
2022-09-10T01:46:19.258Z,99.70
2022-09-10T01:49:26.173Z,99.50
2022-09-10T01:52:08.342Z,99.50
2022-09-10T01:54:35.329Z,99.40
2022-09-10T01:57:17.055Z,99.30
2022-09-10T01:59:54.376Z,99.20
2022-09-10T02:02:29.616Z,99.20
2022-09-10T02:04:58.063Z,99.30
2022-09-10T02:07:26.638Z,99.20
2022-09-10T02:09:54.974Z,99.10
2022-09-10T02:12:24.766Z,98.90
2022-09-10T02:15:12.466Z,98.90
2022-09-10T02:18:02.141Z,98.90
2022-09-10T02:20:31.269Z,98.70
2022-09-10T02:22:59.740Z,98.70
2022-09-10T02:25:31.839Z,99.00
2022-09-10T02:30:48.326Z,99.00
2022-09-10T02:33:18.525Z,99.00
2022-09-10T02:35:47.812Z,99.10
2022-09-10T02:38:15.104Z,99.40
2022-09-10T02:40:43.313Z,99.00
2022-09-10T02:43:10.274Z,99.00
2022-09-10T02:45:41.206Z,99.00
2022-09-10T02:48:08.253Z,98.90
2022-09-10T02:50:36.158Z,98.80
2022-09-10T02:53:04.438Z,98.80
2022-09-10T02:55:32.004Z,98.80
2022-09-10T02:57:59.017Z,98.70
2022-09-10T03:00:26.195Z,98.60
2022-09-10T03:03:00.906Z,98.60
2022-09-10T03:05:30.006Z,98.70
2022-09-10T03:07:57.701Z,98.60
2022-09-10T03:10:24.970Z,98.70
2022-09-10T03:12:52.473Z,98.80
2022-09-10T03:15:20.627Z,98.80
2022-09-10T03:17:47.833Z,98.90
2022-09-10T03:20:14.970Z,99.00
2022-09-10T03:22:41.991Z,99.00
2022-09-10T03:25:11.988Z,99.10
2022-09-10T03:27:39.342Z,99.20
2022-09-10T03:30:10.589Z,99.20
2022-09-10T03:32:38.266Z,99.20
2022-09-10T03:35:07.766Z,99.10
2022-09-10T03:37:34.714Z,99.10
2022-09-10T03:40:02.636Z,99.10
2022-09-10T03:42:29.654Z,99.00
2022-09-10T03:44:56.783Z,99.00
2022-09-10T03:47:24.153Z,99.20
2022-09-10T03:49:51.100Z,99.20
2022-09-10T03:52:18.587Z,99.30
2022-09-10T03:54:50.119Z,99.20
2022-09-10T03:57:17.252Z,99.30
2022-09-10T03:59:45.963Z,99.40
2022-09-10T04:02:13.014Z,99.60
2022-09-10T04:04:40.777Z,99.60
2022-09-10T04:07:12.859Z,99.70
2022-09-10T04:09:39.796Z,99.70
2022-09-10T04:12:07.132Z,99.70
2022-09-10T04:14:35.163Z,99.60
2022-09-10T04:17:03.515Z,99.70
2022-09-10T04:19:31.752Z,99.80
2022-09-10T04:21:58.740Z,99.80
2022-09-10T04:24:28.711Z,99.90
2022-09-10T04:26:57.958Z,99.90
2022-09-10T04:29:25.754Z,99.90
2022-09-10T04:31:55.269Z,99.90
2022-09-10T04:34:22.805Z,99.90
2022-09-10T04:36:53.713Z,99.90
2022-09-10T04:39:21.327Z,99.90
2022-09-10T04:41:49.701Z,99.90
2022-09-10T04:44:19.694Z,99.90
2022-09-10T04:46:47.951Z,99.90
2022-09-10T04:49:15.058Z,99.80
2022-09-10T04:51:42.954Z,99.90
2022-09-10T04:54:13.603Z,99.90
2022-09-10T04:56:41.721Z,99.80
2022-09-10T04:59:10.898Z,99.70
2022-09-10T05:01:38.229Z,99.60
2022-09-10T05:04:05.589Z,99.60
2022-09-10T05:06:36.385Z,99.50
2022-09-10T05:09:04.990Z,99.60
2022-09-10T05:11:32.957Z,99.50
2022-09-10T05:13:59.898Z,99.50
2022-09-10T05:16:29.343Z,99.50
2022-09-10T05:18:58.094Z,99.50
2022-09-10T05:21:26.775Z,99.50
2022-09-10T05:23:56.240Z,99.50
2022-09-10T05:26:24.778Z,99.50
2022-09-10T05:28:54.965Z,99.50
2022-09-10T05:31:22.222Z,99.40
2022-09-10T05:33:49.618Z,99.50
2022-09-10T05:36:16.634Z,99.40
2022-09-10T05:38:45.784Z,99.40
2022-09-10T05:41:13.796Z,99.50
2022-09-10T05:43:45.392Z,99.50
2022-09-10T05:46:13.079Z,99.50
2022-09-10T05:48:43.717Z,99.50
2022-09-10T05:51:12.544Z,99.50
2022-09-10T05:53:41.712Z,99.30
2022-09-10T05:56:08.727Z,99.40
2022-09-10T05:58:37.045Z,99.50
2022-09-10T06:01:05.579Z,99.50
2022-09-10T06:03:33.376Z,99.50
2022-09-10T06:06:01.923Z,99.50
2022-09-10T06:08:33.191Z,99.40
2022-09-10T06:11:06.404Z,99.30
2022-09-10T06:13:44.010Z,99.20
2022-09-10T06:16:12.631Z,99.00
2022-09-10T06:18:42.116Z,99.00
2022-09-10T06:21:15.350Z,99.00
2022-09-10T06:23:45.062Z,98.90
2022-09-10T06:26:15.422Z,99.10
2022-09-10T06:28:43.382Z,99.10
2022-09-10T06:31:16.998Z,99.10
2022-09-10T06:33:46.765Z,99.10
2022-09-10T06:36:16.641Z,98.90
2022-09-10T06:38:45.227Z,98.80
2022-09-10T06:41:15.402Z,98.70
2022-09-10T06:43:49.649Z,98.80
2022-09-10T06:49:26.167Z,98.70
2022-09-10T06:51:53.465Z,98.70
2022-09-10T06:54:20.599Z,98.60
2022-09-10T06:56:50.773Z,98.70
2022-09-10T06:59:18.497Z,98.70
2022-09-10T07:01:48.287Z,98.60
2022-09-10T07:04:17.068Z,98.50
2022-09-10T07:06:46.019Z,98.50
2022-09-10T07:09:16.753Z,98.60
2022-09-10T07:11:52.523Z,98.70
2022-09-10T07:14:19.556Z,98.60
2022-09-10T07:16:47.607Z,98.50
2022-09-10T07:19:17.381Z,98.30
2022-09-10T07:21:45.595Z,98.30
2022-09-10T07:24:14.893Z,98.20
2022-09-10T07:26:49.838Z,98.20
2022-09-10T07:29:18.392Z,98.10
2022-09-10T07:31:47.326Z,98.10
2022-09-10T07:34:22.342Z,98.10
2022-09-10T07:36:49.705Z,97.80
2022-09-10T07:39:22.346Z,97.60
2022-09-10T07:41:52.343Z,97.60
2022-09-10T07:44:23.329Z,97.60
2022-09-10T07:46:52.566Z,97.30
2022-09-10T07:49:20.796Z,97.50
2022-09-10T07:51:57.670Z,97.70
2022-09-10T07:54:29.021Z,97.80
2022-09-10T07:56:57.304Z,97.90
2022-09-10T07:59:24.501Z,97.90
2022-09-10T08:01:57.410Z,97.90
2022-09-10T08:04:25.213Z,98.00
2022-09-10T08:06:53.334Z,98.30
2022-09-10T08:09:20.630Z,98.40
2022-09-10T08:11:52.848Z,99.30
2022-09-10T08:14:22.536Z,99.90
2022-09-10T08:16:52.691Z,99.90
2022-09-10T08:19:21.346Z,99.90
2022-09-10T08:21:49.444Z,99.90
2022-09-10T08:24:23.601Z,99.90
2022-09-10T08:26:51.338Z,99.90
2022-09-10T08:29:18.662Z,99.90
2022-09-10T08:31:45.828Z,99.90
2022-09-10T08:34:20.275Z,99.90
2022-09-10T08:36:54.474Z,99.90
2022-09-10T08:39:24.200Z,99.90
2022-09-10T08:41:58.165Z,99.90
2022-09-10T08:44:33.912Z,99.90
2022-09-10T08:47:10.696Z,99.90
2022-09-10T08:49:47.527Z,99.90
2022-09-10T08:52:37.591Z,99.90
2022-09-10T08:55:27.343Z,99.90
2022-09-10T08:58:11.362Z,99.90
2022-09-10T09:00:44.599Z,99.90
2022-09-10T09:03:39.673Z,99.90
2022-09-10T09:06:17.297Z,99.90
2022-09-10T09:08:48.507Z,99.90
2022-09-10T09:12:01.872Z,99.90
2022-09-10T09:15:03.804Z,99.90
2022-09-10T09:17:53.946Z,99.90
2022-09-10T09:20:47.248Z,99.90
2022-09-10T09:24:11.836Z,99.90
2022-09-10T09:26:38.516Z,99.90
2022-09-10T09:29:21.592Z,99.90
2022-09-10T09:31:56.607Z,99.90
2022-09-10T09:34:26.708Z,99.90
2022-09-10T09:36:57.011Z,99.90
2022-09-10T09:39:36.913Z,99.90
2022-09-10T09:42:29.343Z,99.90
2022-09-10T09:45:23.403Z,99.90
2022-09-10T09:47:51.015Z,99.90
2022-09-10T09:50:18.590Z,99.90
2022-09-10T09:52:46.727Z,99.90
2022-09-10T09:55:41.530Z,99.90
2022-09-10T09:58:29.816Z,99.90
2022-09-10T10:01:09.143Z,99.90
2022-09-10T10:03:52.642Z,99.90
2022-09-10T10:06:24.662Z,99.90
2022-09-10T10:09:08.119Z,99.90
2022-09-10T10:11:47.963Z,99.90
2022-09-10T10:14:24.316Z,99.90
2022-09-10T10:16:56.223Z,99.90
2022-09-10T10:19:35.546Z,99.90
2022-09-10T10:22:14.422Z,99.90
2022-09-10T10:24:42.744Z,99.90
2022-09-10T10:27:26.796Z,99.90
2022-09-10T10:30:00.229Z,99.90
2022-09-10T10:32:56.336Z,99.90
2022-09-10T10:35:45.746Z,99.90
2022-09-10T10:38:29.380Z,99.90
2022-09-10T10:41:09.774Z,99.90
2022-09-10T10:43:45.900Z,99.90
2022-09-10T10:46:22.061Z,99.90
2022-09-10T10:48:58.282Z,99.90
2022-09-10T10:51:44.843Z,99.90
2022-09-10T10:54:48.385Z,99.90
2022-09-10T10:57:40.077Z,99.90
2022-09-10T11:00:19.049Z,99.90
2022-09-10T11:03:11.363Z,99.90
2022-09-10T11:05:50.077Z,99.90
2022-09-10T11:08:27.154Z,99.90
2022-09-10T11:11:02.931Z,99.90
2022-09-10T11:13:39.825Z,99.90
2022-09-10T11:16:20.268Z,99.90
2022-09-10T11:18:50.618Z,99.70
2022-09-10T11:21:22.218Z,99.70
2022-09-10T11:24:04.759Z,99.90
2022-09-10T11:26:43.007Z,99.90
2022-09-10T11:29:37.085Z,99.90
2022-09-10T11:32:04.082Z,99.90
2022-09-10T11:34:41.253Z,99.70
2022-09-10T11:37:33.180Z,99.50
2022-09-10T11:40:06.748Z,99.60
2022-09-10T11:42:49.154Z,99.70
2022-09-10T11:45:36.308Z,99.60
2022-09-10T11:48:18.861Z,99.30
2022-09-10T11:51:06.220Z,99.10
2022-09-10T11:53:34.226Z,98.80
2022-09-10T11:56:23.200Z,98.30
2022-09-10T11:59:22.097Z,98.00
2022-09-10T12:02:30.409Z,97.80
2022-09-10T12:05:00.265Z,97.80
2022-09-10T12:07:49.290Z,98.00
2022-09-10T12:10:19.281Z,98.30
2022-09-10T12:12:50.338Z,98.40
2022-09-10T12:15:23.723Z,98.80
2022-09-10T12:18:02.120Z,98.90
2022-09-10T12:20:38.364Z,98.60
2022-09-10T12:23:06.045Z,98.30
2022-09-10T12:25:34.874Z,97.90
2022-09-10T12:28:07.725Z,97.60
2022-09-10T12:30:38.175Z,97.20
2022-09-10T12:33:29.287Z,96.80
2022-09-10T12:35:56.262Z,96.50
2022-09-10T12:39:00.757Z,96.10
2022-09-10T12:41:29.813Z,95.90
2022-09-10T12:43:57.786Z,95.60
2022-09-10T12:46:26.045Z,95.60
2022-09-10T12:48:56.122Z,96.00
2022-09-10T12:51:40.853Z,95.30
2022-09-10T12:54:37.936Z,95.60
2022-09-10T12:57:09.168Z,96.80
2022-09-10T12:59:59.993Z,97.40
2022-09-10T13:02:32.866Z,97.60
2022-09-10T13:05:17.333Z,97.70
2022-09-10T13:07:45.728Z,97.80
2022-09-10T13:10:22.013Z,97.60
2022-09-10T13:12:55.292Z,97.70
2022-09-10T13:15:30.055Z,97.90
2022-09-10T13:17:57.221Z,98.20
2022-09-10T13:20:29.551Z,98.80
2022-09-10T13:23:02.378Z,98.70
2022-09-10T13:25:42.711Z,98.90
2022-09-10T13:28:32.853Z,98.60
2022-09-10T13:31:09.262Z,98.50
2022-09-10T13:33:54.649Z,98.60
2022-09-10T13:36:34.438Z,98.40
2022-09-10T13:39:29.128Z,98.40
2022-09-10T13:42:17.373Z,98.30
2022-09-10T13:45:03.164Z,99.20
2022-09-10T13:48:01.260Z,99.90
2022-09-10T13:50:36.358Z,99.90
2022-09-10T13:53:08.219Z,99.90
2022-09-10T13:55:35.728Z,99.90
2022-09-10T13:58:14.797Z,99.90
2022-09-10T14:01:01.018Z,99.90
2022-09-10T14:03:36.766Z,99.90
2022-09-10T14:06:07.920Z,99.90
2022-09-10T14:08:45.009Z,99.90
2022-09-10T14:11:11.874Z,99.90
2022-09-10T14:14:05.999Z,99.90
2022-09-10T14:16:51.804Z,99.90
2022-09-10T14:19:30.279Z,99.90
2022-09-10T14:21:57.670Z,99.90
2022-09-10T14:24:48.164Z,99.90
2022-09-10T14:27:16.903Z,99.90
2022-09-10T14:29:44.204Z,99.90
2022-09-10T14:32:27.548Z,99.90
2022-09-10T14:34:55.287Z,99.90
2022-09-10T14:37:41.951Z,99.90
2022-09-10T14:40:22.070Z,99.90
2022-09-10T14:42:50.442Z,99.90
2022-09-10T14:45:39.169Z,99.90
2022-09-10T14:48:26.111Z,99.90
2022-09-10T14:51:10.579Z,99.90
2022-09-10T14:53:38.124Z,99.90
2022-09-10T14:56:10.247Z,99.90
2022-09-10T14:58:37.157Z,99.90
2022-09-10T15:01:04.339Z,99.90
2022-09-10T15:03:31.341Z,99.90
2022-09-10T15:05:58.373Z,99.90
2022-09-10T15:08:25.657Z,99.90
2022-09-10T15:10:55.337Z,99.90
2022-09-10T15:13:22.271Z,99.90
2022-09-10T15:15:50.133Z,99.90
2022-09-10T15:18:17.358Z,99.90
2022-09-10T15:20:44.323Z,99.90
2022-09-10T15:23:11.589Z,99.90
2022-09-10T15:25:47.341Z,99.90
2022-09-10T15:28:14.306Z,99.90
2022-09-10T15:30:41.648Z,99.90
2022-09-10T15:33:14.252Z,99.90
2022-09-10T15:35:41.681Z,99.90
2022-09-10T15:38:15.556Z,99.90
2022-09-10T15:40:42.697Z,99.90
2022-09-10T15:43:10.124Z,99.90
2022-09-10T15:45:37.519Z,99.90
2022-09-10T15:48:05.051Z,99.90
2022-09-10T15:50:31.990Z,99.90
2022-09-10T15:52:59.478Z,99.90
2022-09-10T15:55:27.716Z,99.90
2022-09-10T15:57:54.730Z,99.90
2022-09-10T16:00:21.726Z,99.90
2022-09-10T16:02:53.046Z,99.90
2022-09-10T16:05:23.980Z,99.90
2022-09-10T16:07:51.211Z,99.90
2022-09-10T16:10:18.244Z,99.90
2022-09-10T16:12:45.099Z,99.90
2022-09-10T16:15:12.337Z,99.90
2022-09-10T16:17:39.187Z,99.90
2022-09-10T16:20:06.569Z,99.90
2022-09-10T16:22:33.478Z,99.90
2022-09-10T16:25:00.491Z,99.90
2022-09-10T16:27:27.400Z,99.90
2022-09-10T16:29:54.429Z,99.90
2022-09-10T16:32:21.568Z,99.90
2022-09-10T16:34:48.471Z,99.90
2022-09-10T16:37:17.347Z,99.90
2022-09-10T16:39:44.367Z,99.90
2022-09-10T16:42:11.313Z,99.90
2022-09-10T16:44:38.630Z,99.90
2022-09-10T16:47:05.760Z,99.90
2022-09-10T16:49:32.662Z,99.90
2022-09-10T16:51:59.594Z,99.90
2022-09-10T16:54:26.769Z,99.90
2022-09-10T16:56:53.904Z,99.90
2022-09-10T16:59:23.180Z,99.90
2022-09-10T17:01:52.031Z,99.90
2022-09-10T17:04:27.610Z,99.90
2022-09-10T17:06:56.188Z,99.90
2022-09-10T17:09:23.096Z,99.90
2022-09-10T17:11:51.187Z,99.90
2022-09-10T17:14:18.108Z,99.90
2022-09-10T17:16:45.401Z,99.90
2022-09-10T17:19:17.679Z,99.90
2022-09-10T17:21:50.925Z,99.90
2022-09-10T17:24:19.603Z,99.90
2022-09-10T17:26:46.566Z,99.90
2022-09-10T17:29:16.257Z,99.90
2022-09-10T17:31:45.230Z,99.90
2022-09-10T17:34:13.230Z,99.90
2022-09-10T17:36:42.052Z,99.90
2022-09-10T17:39:09.047Z,99.90
2022-09-10T17:41:36.365Z,99.90
2022-09-10T17:44:03.314Z,99.90
2022-09-10T17:46:31.498Z,99.90
2022-09-10T17:49:02.532Z,99.90
2022-09-10T17:51:31.838Z,99.90
2022-09-10T17:53:58.946Z,99.90
2022-09-10T17:56:26.863Z,99.90
2022-09-10T17:59:01.840Z,99.90
2022-09-10T18:01:31.791Z,99.90
2022-09-10T18:03:58.885Z,99.90
2022-09-10T18:06:29.282Z,99.90
2022-09-10T18:09:00.752Z,99.90
2022-09-10T18:11:33.241Z,99.90
2022-09-10T18:14:00.848Z,99.90
2022-09-10T18:16:30.293Z,99.90
2022-09-10T18:19:00.164Z,99.90
2022-09-10T18:21:38.153Z,99.90
2022-09-10T18:24:07.012Z,99.90
2022-09-10T18:26:42.030Z,99.90
2022-09-10T18:29:17.746Z,99.90
2022-09-10T18:31:47.655Z,99.90
2022-09-10T18:34:22.655Z,99.90
2022-09-10T18:36:54.960Z,99.90
2022-09-10T18:39:23.480Z,99.90
2022-09-10T18:41:50.600Z,99.90
2022-09-10T18:44:23.461Z,99.90
2022-09-10T18:46:52.899Z,99.90
2022-09-10T18:49:22.269Z,99.90
2022-09-10T18:51:49.971Z,99.90
2022-09-10T18:54:17.652Z,99.90
2022-09-10T18:56:47.352Z,99.90
2022-09-10T18:59:23.341Z,99.90
2022-09-10T19:01:53.522Z,99.90
2022-09-10T19:04:22.294Z,99.90
2022-09-10T19:06:49.833Z,99.90
2022-09-10T19:09:26.091Z,99.90
2022-09-10T19:11:55.047Z,99.90
2022-09-10T19:14:31.110Z,99.90
2022-09-10T19:17:00.353Z,99.90
2022-09-10T19:19:30.224Z,99.90
2022-09-10T19:22:03.386Z,99.90
2022-09-10T19:24:54.060Z,99.90
2022-09-10T19:27:18.154Z,99.90
2022-09-10T19:29:47.377Z,99.90
2022-09-10T19:32:15.217Z,99.90
2022-09-10T19:34:42.826Z,99.90
2022-09-10T19:37:09.859Z,99.90
2022-09-10T19:39:36.877Z,99.90
2022-09-10T19:42:05.131Z,99.90
2022-09-10T19:44:33.709Z,99.90
2022-09-10T19:47:00.996Z,99.90
2022-09-10T19:49:28.278Z,99.90
2022-09-10T19:51:55.199Z,99.90
2022-09-10T19:54:24.640Z,99.90
2022-09-10T19:56:51.855Z,99.90
2022-09-10T19:59:18.801Z,99.90
2022-09-10T20:01:46.264Z,99.90
2022-09-10T20:04:14.260Z,99.90
2022-09-10T20:06:42.848Z,99.90
2022-09-10T20:09:10.292Z,99.90
2022-09-10T20:11:37.895Z,99.90
2022-09-10T20:14:13.467Z,99.90
2022-09-10T20:16:43.329Z,99.90
2022-09-10T20:19:18.264Z,99.90
2022-09-10T20:21:47.575Z,99.90
2022-09-10T20:24:16.394Z,99.90
2022-09-10T20:26:46.713Z,99.90
2022-09-10T20:29:17.906Z,99.90
2022-09-10T20:31:46.497Z,99.90
2022-09-10T20:34:16.694Z,99.90
2022-09-10T20:36:43.722Z,99.90
2022-09-10T20:39:13.750Z,99.90
2022-09-10T20:41:41.309Z,99.90
2022-09-10T20:44:11.161Z,99.90
2022-09-10T20:46:38.343Z,99.90
2022-09-10T20:49:05.714Z,99.90
2022-09-10T20:51:35.716Z,99.90
2022-09-10T20:54:04.712Z,99.90
2022-09-10T20:56:32.360Z,99.90
2022-09-10T20:59:01.717Z,99.90
2022-09-10T21:01:33.284Z,99.90
2022-09-10T21:04:01.589Z,99.90
2022-09-10T21:06:31.419Z,99.90
2022-09-10T21:09:00.340Z,99.90
2022-09-10T21:11:29.763Z,99.90
2022-09-10T21:13:59.614Z,99.90
2022-09-10T21:16:28.520Z,99.90
2022-09-10T21:19:07.967Z,99.90
2022-09-10T21:21:36.689Z,99.90
2022-09-10T21:24:10.838Z,99.90
2022-09-10T21:26:39.953Z,99.90
2022-09-10T21:29:12.763Z,99.90
2022-09-10T21:31:40.090Z,99.90
2022-09-10T21:34:07.639Z,99.90
2022-09-10T21:36:36.697Z,99.90
2022-09-10T21:39:07.624Z,99.90
2022-09-10T21:41:36.762Z,99.90
2022-09-10T21:44:15.559Z,99.90
2022-09-10T21:46:43.820Z,99.90
2022-09-10T21:49:11.859Z,99.90
2022-09-10T21:51:39.473Z,99.90
2022-09-10T21:54:06.620Z,99.90
2022-09-10T21:56:33.786Z,99.90
2022-09-10T21:59:01.115Z,99.90
2022-09-10T22:01:31.336Z,99.90
2022-09-10T22:04:00.593Z,99.90
2022-09-10T22:06:30.366Z,99.90
2022-09-10T22:09:03.063Z,99.90
2022-09-10T22:11:35.962Z,99.90
2022-09-10T22:14:14.400Z,99.90
2022-09-10T22:16:41.323Z,99.90
2022-09-10T22:19:20.622Z,99.90
2022-09-10T22:21:47.693Z,99.90
2022-09-10T22:24:15.199Z,99.90
2022-09-10T22:26:43.992Z,99.90
2022-09-10T22:29:12.587Z,99.90
2022-09-10T22:31:39.572Z,99.90
2022-09-10T22:34:10.107Z,99.90
2022-09-10T22:36:39.423Z,99.90
2022-09-10T22:39:17.938Z,99.90
2022-09-10T22:41:46.122Z,99.90
2022-09-10T22:44:13.712Z,99.90
2022-09-10T22:46:41.519Z,99.90
2022-09-10T22:49:08.791Z,99.90
2022-09-10T22:51:39.918Z,99.90
2022-09-10T22:54:08.111Z,99.90
2022-09-10T22:56:38.208Z,99.90
2022-09-10T22:59:06.444Z,99.90
2022-09-10T23:01:37.986Z,99.90
2022-09-10T23:04:06.540Z,99.90
2022-09-10T23:06:36.283Z,99.90
2022-09-10T23:09:17.840Z,99.90
2022-09-10T23:11:45.601Z,99.90
2022-09-10T23:14:15.863Z,99.90
2022-09-10T23:16:43.615Z,99.90
2022-09-10T23:19:16.870Z,99.90
2022-09-10T23:21:46.586Z,99.90
2022-09-10T23:24:16.331Z,99.90
2022-09-10T23:26:44.165Z,99.90
2022-09-10T23:29:12.466Z,99.90
2022-09-10T23:31:41.008Z,99.90
2022-09-10T23:34:11.454Z,99.90
2022-09-10T23:36:41.139Z,99.90
2022-09-10T23:39:13.446Z,99.90
2022-09-10T23:41:41.804Z,99.90
2022-09-10T23:44:10.019Z,99.90
2022-09-10T23:46:37.317Z,99.90
2022-09-10T23:49:04.924Z,99.90
2022-09-10T23:51:32.034Z,99.90
2022-09-10T23:53:59.459Z,99.90
2022-09-10T23:56:28.465Z,99.90
2022-09-10T23:58:56.596Z,99.90
